Time;durP1;ratioP1;P1;durP2;ratioP2;P2;SDS_P1;SDS_P2;PMS_P1;PMS_P2;Temp;Humidity;BMP_temperature;BMP_pressure;BME280_temperature;BME280_humidity;BME280_pressure;Samples;Min_cycle;Max_cycle;Signal;HPM_P1;HPM_P2
2023/03/12 00:01:14;;;;;;;6.32;3.97;;;;;;;;;;5070951;28;20049;-77
2023/03/12 00:03:40;;;;;;;10.43;4.20;;;;;;;;;;5053834;28;20060;-77
2023/03/12 00:06:06;;;;;;;10.68;5.03;;;;;;;;;;5038002;28;20163;-77
2023/03/12 00:08:33;;;;;;;9.02;4.07;;;;;;;;;;5053940;28;20060;-77
2023/03/12 00:10:59;;;;;;;7.38;3.80;;;;;;;;;;5072623;28;20052;-77
2023/03/12 00:13:28;;;;;;;7.70;4.38;;;;;;;;;;5071754;28;20082;-77
2023/03/12 00:15:54;;;;;;;8.23;4.30;;;;;;;;;;5078238;28;20036;-77
2023/03/12 00:18:20;;;;;;;10.70;4.95;;;;;;;;;;5078948;28;20040;-77
2023/03/12 00:20:52;;;;;;;8.80;4.53;;;;;;;;;;5060852;28;20064;-77
2023/03/12 00:23:18;;;;;;;9.43;5.07;;;;;;;;;;5059566;28;20457;-77
2023/03/12 00:25:44;;;;;;;6.50;4.68;;;;;;;;;;5060051;28;20110;-77
2023/03/12 00:28:13;;;;;;;8.65;4.30;;;;;;;;;;5078662;28;20032;-77
2023/03/12 00:30:39;;;;;;;9.23;4.47;;;;;;;;;;5078720;28;20124;-77
2023/03/12 00:33:05;;;;;;;13.05;5.32;;;;;;;;;;5078534;28;20048;-77
2023/03/12 00:35:31;;;;;;;9.68;4.45;;;;;;;;;;5079038;28;20043;-77
2023/03/12 00:37:57;;;;;;;8.43;4.50;;;;;;;;;;5065466;28;20045;-77
2023/03/12 00:40:23;;;;;;;11.00;4.47;;;;;;;;;;5039392;28;20045;-77
2023/03/12 00:42:49;;;;;;;8.00;4.13;;;;;;;;;;5058082;28;20049;-77
2023/03/12 00:45:15;;;;;;;8.73;4.25;;;;;;;;;;5040860;28;20381;-77
2023/03/12 00:47:41;;;;;;;7.65;4.40;;;;;;;;;;5058224;28;20047;-77
2023/03/12 00:50:08;;;;;;;7.40;3.95;;;;;;;;;;5058917;28;20218;-77
2023/03/12 00:52:34;;;;;;;6.57;3.92;;;;;;;;;;5040245;28;20059;-77
2023/03/12 00:55:00;;;;;;;8.38;4.60;;;;;;;;;;5058738;28;20040;-77
2023/03/12 00:57:26;;;;;;;6.82;4.13;;;;;;;;;;5058821;28;20052;-77
2023/03/12 00:59:52;;;;;;;11.13;4.45;;;;;;;;;;5058371;28;20037;-77
2023/03/12 01:02:18;;;;;;;8.50;4.65;;;;;;;;;;5058660;28;20045;-77
2023/03/12 01:04:44;;;;;;;12.73;4.95;;;;;;;;;;5039690;28;20386;-77
2023/03/12 01:07:10;;;;;;;10.52;5.20;;;;;;;;;;5058618;28;20045;-77
2023/03/12 01:09:36;;;;;;;9.18;5.03;;;;;;;;;;5036830;28;20064;-77
2023/03/12 01:12:02;;;;;;;8.93;4.63;;;;;;;;;;5037205;28;20099;-77
2023/03/12 01:14:28;;;;;;;11.52;4.90;;;;;;;;;;5038207;28;20116;-77
2023/03/12 01:16:54;;;;;;;9.70;4.68;;;;;;;;;;5038934;28;20374;-77
2023/03/12 01:19:20;;;;;;;7.85;4.40;;;;;;;;;;5020362;28;20083;-77
2023/03/12 01:21:46;;;;;;;10.18;4.78;;;;;;;;;;5038211;28;20517;-77
2023/03/12 01:24:12;;;;;;;10.15;4.88;;;;;;;;;;5036890;28;20053;-77
2023/03/12 01:26:38;;;;;;;9.57;5.05;;;;;;;;;;5034411;28;20049;-77
2023/03/12 01:29:04;;;;;;;9.23;4.75;;;;;;;;;;5032375;28;20501;-77
2023/03/12 01:31:30;;;;;;;6.70;4.80;;;;;;;;;;5016866;28;20081;-77
2023/03/12 01:33:56;;;;;;;8.55;5.40;;;;;;;;;;5017123;28;20049;-77
2023/03/12 01:36:27;;;;;;;8.90;5.28;;;;;;;;;;5034274;28;20064;-77
2023/03/12 01:38:53;;;;;;;10.13;5.05;;;;;;;;;;5049439;28;20183;-77
2023/03/12 01:41:20;;;;;;;10.27;5.63;;;;;;;;;;5034160;28;20454;-77
2023/03/12 01:43:46;;;;;;;8.80;5.18;;;;;;;;;;5034522;28;20057;-77
2023/03/12 01:46:26;;;;;;;12.65;5.40;;;;;;;;;;5033721;28;20392;-77
2023/03/12 01:48:57;;;;;;;9.95;5.07;;;;;;;;;;5034766;28;20095;-77
2023/03/12 01:51:25;;;;;;;11.02;5.18;;;;;;;;;;5034921;28;20042;-77
2023/03/12 01:53:53;;;;;;;8.98;5.05;;;;;;;;;;5034500;28;20398;-77
2023/03/12 01:56:20;;;;;;;9.35;5.13;;;;;;;;;;5033498;28;20057;-77
2023/03/12 01:58:51;;;;;;;8.05;4.50;;;;;;;;;;5032904;28;20056;-77
2023/03/12 02:01:18;;;;;;;8.65;4.55;;;;;;;;;;5034947;28;20048;-77
2023/03/12 02:03:46;;;;;;;9.68;4.90;;;;;;;;;;5015651;28;20057;-77
2023/03/12 02:06:13;;;;;;;10.85;4.72;;;;;;;;;;5034043;28;20050;-77
2023/03/12 02:08:41;;;;;;;11.35;5.03;;;;;;;;;;5044528;28;20501;-77
2023/03/12 02:11:07;;;;;;;8.63;3.92;;;;;;;;;;5054455;28;20128;-77
2023/03/12 02:13:33;;;;;;;10.15;4.10;;;;;;;;;;5019201;28;20052;-77
2023/03/12 02:15:59;;;;;;;9.13;4.03;;;;;;;;;;5036761;28;20045;-77
2023/03/12 02:18:26;;;;;;;7.55;3.75;;;;;;;;;;5054269;28;20112;-77
2023/03/12 02:20:55;;;;;;;7.35;4.00;;;;;;;;;;5036643;28;20045;-77
2023/03/12 02:23:33;;;;;;;7.70;4.13;;;;;;;;;;5053673;28;20037;-77
2023/03/12 02:25:59;;;;;;;10.02;4.30;;;;;;;;;;5054443;28;20353;-77
2023/03/12 02:28:27;;;;;;;8.15;3.65;;;;;;;;;;5035923;28;20493;-77
2023/03/12 02:30:57;;;;;;;9.13;4.00;;;;;;;;;;5036451;28;20084;-77
2023/03/12 02:33:23;;;;;;;8.38;4.00;;;;;;;;;;5053662;28;20093;-77
2023/03/12 02:35:49;;;;;;;8.80;4.00;;;;;;;;;;5036517;28;20051;-77
2023/03/12 02:38:34;;;;;;;6.65;3.92;;;;;;;;;;5028877;28;20057;-77
2023/03/12 02:41:01;;;;;;;8.60;3.90;;;;;;;;;;5054187;28;20515;-77
2023/03/12 02:43:27;;;;;;;12.30;4.10;;;;;;;;;;5018906;28;20053;-77
2023/03/12 02:45:55;;;;;;;9.38;4.38;;;;;;;;;;5035797;28;20132;-77
2023/03/12 02:48:20;;;;;;;8.27;3.92;;;;;;;;;;5053458;28;20053;-77
2023/03/12 02:50:46;;;;;;;6.95;3.97;;;;;;;;;;5034570;28;20370;-77
2023/03/12 02:53:13;;;;;;;8.90;4.05;;;;;;;;;;5053008;28;20055;-77
2023/03/12 02:55:38;;;;;;;8.20;4.00;;;;;;;;;;5035648;28;20071;-77
2023/03/12 02:58:04;;;;;;;9.93;4.28;;;;;;;;;;5035176;28;20155;-77
2023/03/12 03:00:31;;;;;;;8.05;4.22;;;;;;;;;;5053481;28;20508;-77
2023/03/12 03:03:00;;;;;;;8.00;3.80;;;;;;;;;;5053010;28;20123;-77
2023/03/12 03:05:26;;;;;;;8.43;3.75;;;;;;;;;;5035463;28;20692;-77
2023/03/12 03:07:52;;;;;;;7.05;3.83;;;;;;;;;;5034956;28;20147;-77
2023/03/12 03:10:18;;;;;;;7.28;3.70;;;;;;;;;;5053082;28;20088;-77
2023/03/12 03:12:44;;;;;;;9.25;4.00;;;;;;;;;;5034750;28;20044;-77
2023/03/12 03:15:10;;;;;;;6.47;3.60;;;;;;;;;;5052962;28;20037;-77
2023/03/12 03:17:36;;;;;;;7.97;4.05;;;;;;;;;;5015937;28;20493;-77
2023/03/12 03:20:06;;;;;;;7.43;3.83;;;;;;;;;;5052459;28;20047;-77
2023/03/12 03:22:32;;;;;;;7.13;4.00;;;;;;;;;;5034884;28;20573;-77
2023/03/12 03:24:58;;;;;;;10.20;4.03;;;;;;;;;;5035338;28;20389;-77
2023/03/12 03:27:24;;;;;;;8.70;4.40;;;;;;;;;;5034801;28;20052;-77
2023/03/12 03:29:50;;;;;;;7.43;4.10;;;;;;;;;;5051898;28;20103;-77
2023/03/12 03:32:16;;;;;;;8.07;4.20;;;;;;;;;;5032740;28;20076;-77
2023/03/12 03:34:42;;;;;;;8.55;3.83;;;;;;;;;;5032339;28;20041;-77
2023/03/12 03:37:09;;;;;;;8.18;4.28;;;;;;;;;;5052703;28;20045;-77
2023/03/12 03:39:35;;;;;;;7.65;3.70;;;;;;;;;;5052549;28;20521;-77
2023/03/12 03:42:01;;;;;;;9.55;4.05;;;;;;;;;;5052836;28;20041;-77
2023/03/12 03:44:27;;;;;;;8.73;4.43;;;;;;;;;;5052765;28;20436;-77
2023/03/12 03:46:54;;;;;;;7.18;4.15;;;;;;;;;;5034995;28;20037;-77
2023/03/12 03:49:20;;;;;;;8.88;4.28;;;;;;;;;;5052032;28;20458;-77
2023/03/12 03:51:46;;;;;;;8.88;5.05;;;;;;;;;;5033045;28;20120;-76
2023/03/12 03:54:12;;;;;;;9.40;5.28;;;;;;;;;;5052265;28;20056;-77
2023/03/12 03:56:39;;;;;;;8.75;5.38;;;;;;;;;;5052835;28;20045;-77
2023/03/12 03:59:05;;;;;;;9.50;4.75;;;;;;;;;;5052356;28;20120;-77
2023/03/12 04:01:31;;;;;;;8.43;4.65;;;;;;;;;;5052793;28;20433;-77
2023/03/12 04:03:58;;;;;;;8.48;4.50;;;;;;;;;;5052224;28;20041;-77
2023/03/12 04:06:24;;;;;;;9.73;4.70;;;;;;;;;;5052673;28;20041;-77
2023/03/12 04:08:50;;;;;;;7.10;4.30;;;;;;;;;;5051788;28;20082;-77
2023/03/12 04:11:17;;;;;;;9.05;4.20;;;;;;;;;;5032270;28;20393;-77
2023/03/12 04:13:43;;;;;;;5.47;4.10;;;;;;;;;;5034053;28;20386;-77
2023/03/12 04:16:10;;;;;;;10.00;4.35;;;;;;;;;;5034714;28;20044;-77
2023/03/12 04:18:36;;;;;;;8.73;4.22;;;;;;;;;;5034085;28;20049;-77
2023/03/12 04:21:03;;;;;;;6.95;4.15;;;;;;;;;;5051579;28;20045;-77
2023/03/12 04:23:29;;;;;;;7.57;4.20;;;;;;;;;;5048975;28;20156;-77
2023/03/12 04:25:55;;;;;;;6.80;3.83;;;;;;;;;;5018256;28;20383;-77
2023/03/12 04:28:21;;;;;;;10.18;4.35;;;;;;;;;;5034286;28;20045;-77
2023/03/12 04:31:01;;;;;;;9.13;4.40;;;;;;;;;;5033165;28;20131;-77
2023/03/12 04:33:27;;;;;;;5.25;3.88;;;;;;;;;;5051178;28;20060;-76
2023/03/12 04:35:53;;;;;;;9.15;4.50;;;;;;;;;;5034386;28;20053;-77
2023/03/12 04:38:20;;;;;;;7.05;4.15;;;;;;;;;;5049502;28;20068;-77
2023/03/12 04:40:46;;;;;;;6.40;4.32;;;;;;;;;;5034349;28;20054;-77
2023/03/12 04:43:12;;;;;;;8.77;4.13;;;;;;;;;;5051882;28;20053;-76
2023/03/12 04:45:38;;;;;;;8.82;4.63;;;;;;;;;;5018050;28;20073;-76
2023/03/12 04:48:05;;;;;;;12.88;5.18;;;;;;;;;;5051783;28;20049;-76
2023/03/12 04:50:31;;;;;;;10.68;4.82;;;;;;;;;;5052168;28;20047;-76
2023/03/12 04:52:57;;;;;;;8.15;4.43;;;;;;;;;;5049321;28;20077;-76
2023/03/12 04:55:23;;;;;;;7.53;4.43;;;;;;;;;;5052026;28;20516;-76
2023/03/12 04:57:49;;;;;;;11.35;4.45;;;;;;;;;;5051802;28;20080;-76
2023/03/12 05:00:16;;;;;;;8.82;4.70;;;;;;;;;;5052226;28;20045;-76
2023/03/12 05:02:42;;;;;;;8.45;4.78;;;;;;;;;;5053319;28;20131;-79
2023/03/12 05:05:10;;;;;;;8.02;4.60;;;;;;;;;;5037737;28;20037;-77
2023/03/12 05:07:36;;;;;;;10.00;4.68;;;;;;;;;;5055210;28;20109;-77
2023/03/12 05:10:03;;;;;;;8.57;4.80;;;;;;;;;;5056081;28;20470;-77
2023/03/12 05:12:29;;;;;;;8.55;4.70;;;;;;;;;;5020636;28;20041;-77
2023/03/12 05:14:55;;;;;;;7.20;4.30;;;;;;;;;;5037734;28;20202;-77
2023/03/12 05:17:21;;;;;;;8.45;4.82;;;;;;;;;;5055313;28;20124;-77
2023/03/12 05:19:47;;;;;;;12.05;4.80;;;;;;;;;;5055337;28;20041;-77
2023/03/12 05:22:13;;;;;;;9.27;5.03;;;;;;;;;;5055278;28;20044;-77
2023/03/12 05:24:39;;;;;;;7.30;4.28;;;;;;;;;;5037098;28;20041;-77
2023/03/12 05:27:07;;;;;;;8.80;4.55;;;;;;;;;;5037328;28;20059;-77
2023/03/12 05:29:34;;;;;;;7.22;4.57;;;;;;;;;;5037508;28;20059;-77
2023/03/12 05:32:00;;;;;;;8.00;4.53;;;;;;;;;;5020555;28;20049;-77
2023/03/12 05:34:30;;;;;;;7.93;4.80;;;;;;;;;;5052841;28;20037;-76
2023/03/12 05:36:59;;;;;;;9.07;4.75;;;;;;;;;;5058218;28;20039;-77
2023/03/12 05:39:26;;;;;;;10.48;4.80;;;;;;;;;;5075052;28;20095;-77
2023/03/12 05:41:56;;;;;;;8.30;4.80;;;;;;;;;;5075005;28;20102;-77
2023/03/12 05:44:23;;;;;;;8.68;4.80;;;;;;;;;;5056846;28;20060;-77
2023/03/12 05:46:49;;;;;;;9.45;4.65;;;;;;;;;;5057171;28;20484;-77
2023/03/12 05:49:15;;;;;;;7.95;4.65;;;;;;;;;;5056693;28;20135;-77
2023/03/12 05:51:42;;;;;;;9.88;5.30;;;;;;;;;;5056847;28;20060;-77
2023/03/12 05:54:08;;;;;;;7.70;4.72;;;;;;;;;;5074621;28;20048;-77
2023/03/12 05:56:35;;;;;;;8.13;4.72;;;;;;;;;;5074889;28;20045;-77
2023/03/12 05:59:01;;;;;;;8.15;4.40;;;;;;;;;;5056650;28;20092;-77
2023/03/12 06:01:28;;;;;;;9.55;4.78;;;;;;;;;;5074652;28;20044;-77
2023/03/12 06:03:55;;;;;;;9.32;5.07;;;;;;;;;;5054909;28;20059;-77
2023/03/12 06:06:21;;;;;;;10.10;4.75;;;;;;;;;;5074303;28;20040;-77
2023/03/12 06:08:47;;;;;;;11.45;4.72;;;;;;;;;;5039356;28;20061;-77
2023/03/12 06:11:13;;;;;;;7.43;4.43;;;;;;;;;;5074668;28;20048;-77
2023/03/12 06:13:39;;;;;;;9.63;5.13;;;;;;;;;;5073718;28;20098;-78
2023/03/12 06:16:07;;;;;;;11.23;4.68;;;;;;;;;;5056971;28;20390;-77
2023/03/12 06:18:33;;;;;;;8.73;4.97;;;;;;;;;;5074074;28;20131;-77
2023/03/12 06:21:13;;;;;;;8.50;4.65;;;;;;;;;;5074277;28;20091;-77
2023/03/12 06:23:40;;;;;;;8.65;4.32;;;;;;;;;;5073677;28;20045;-77
2023/03/12 06:26:06;;;;;;;9.70;4.85;;;;;;;;;;5073293;28;20040;-77
2023/03/12 06:28:32;;;;;;;8.15;4.82;;;;;;;;;;5073700;28;20488;-77
2023/03/12 06:30:59;;;;;;;8.18;4.75;;;;;;;;;;5074233;28;20047;-77
2023/03/12 06:33:25;;;;;;;9.75;5.28;;;;;;;;;;5055381;28;20408;-77
2023/03/12 06:35:55;;;;;;;9.45;5.07;;;;;;;;;;5056126;28;20045;-77
2023/03/12 06:38:21;;;;;;;7.57;4.72;;;;;;;;;;5058575;28;20053;-77
2023/03/12 06:41:16;;;;;;;9.45;4.90;;;;;;;;;;5053788;28;20041;-77
2023/03/12 06:43:43;;;;;;;11.35;5.03;;;;;;;;;;5023358;28;20421;-77
2023/03/12 06:46:11;;;;;;;8.85;4.90;;;;;;;;;;5053846;28;20037;-78
2023/03/12 06:48:40;;;;;;;8.48;4.60;;;;;;;;;;5035468;28;20072;-77
2023/03/12 06:51:10;;;;;;;8.20;4.82;;;;;;;;;;5035943;28;20079;-77
2023/03/12 06:53:36;;;;;;;8.85;5.30;;;;;;;;;;5053271;28;20473;-77
2023/03/12 06:56:03;;;;;;;7.45;5.05;;;;;;;;;;5035904;28;20075;-77
2023/03/12 06:58:32;;;;;;;9.80;5.18;;;;;;;;;;5053260;28;20440;-77
2023/03/12 07:00:58;;;;;;;12.88;5.20;;;;;;;;;;5035503;28;20056;-77
2023/03/12 07:03:24;;;;;;;8.10;4.95;;;;;;;;;;5052729;28;20098;-77
2023/03/12 07:05:50;;;;;;;10.55;5.40;;;;;;;;;;5035488;28;20060;-77
2023/03/12 07:08:17;;;;;;;8.98;5.30;;;;;;;;;;5035131;28;20049;-77
2023/03/12 07:10:43;;;;;;;10.60;5.68;;;;;;;;;;5053570;28;20055;-77
2023/03/12 07:13:10;;;;;;;10.95;5.97;;;;;;;;;;5035025;28;20045;-77
2023/03/12 07:15:36;;;;;;;10.90;6.00;;;;;;;;;;5036011;28;20428;-78
2023/03/12 07:18:06;;;;;;;9.40;5.60;;;;;;;;;;5052964;28;20106;-77
2023/03/12 07:20:32;;;;;;;10.07;5.82;;;;;;;;;;5035559;28;20099;-77
2023/03/12 07:22:59;;;;;;;11.18;6.70;;;;;;;;;;5035070;28;20048;-77
2023/03/12 07:25:25;;;;;;;9.75;6.43;;;;;;;;;;5034856;28;20402;-77
2023/03/12 07:27:51;;;;;;;11.88;6.57;;;;;;;;;;5052913;28;20092;-77
2023/03/12 07:30:17;;;;;;;11.30;6.53;;;;;;;;;;5035164;28;20048;-77
2023/03/12 07:32:43;;;;;;;12.25;7.35;;;;;;;;;;5052291;28;20072;-77
2023/03/12 07:35:09;;;;;;;12.55;7.57;;;;;;;;;;5035425;28;20049;-77
2023/03/12 07:37:35;;;;;;;15.55;7.97;;;;;;;;;;5034628;28;20057;-77
2023/03/12 07:40:06;;;;;;;12.85;8.20;;;;;;;;;;5018714;28;20072;-77
2023/03/12 07:42:32;;;;;;;13.27;8.40;;;;;;;;;;5034682;28;20090;-78
2023/03/12 07:44:58;;;;;;;14.82;8.75;;;;;;;;;;5053002;28;20053;-78
2023/03/12 07:47:24;;;;;;;14.30;10.02;;;;;;;;;;5032518;28;20494;-78
2023/03/12 07:49:50;;;;;;;17.52;10.88;;;;;;;;;;5051524;28;20120;-78
2023/03/12 07:52:18;;;;;;;18.48;10.43;;;;;;;;;;5052902;28;20424;-78
2023/03/12 07:54:44;;;;;;;17.95;11.25;;;;;;;;;;5052654;28;20096;-77
2023/03/12 07:57:10;;;;;;;16.17;11.43;;;;;;;;;;5035062;28;20037;-78
2023/03/12 07:59:36;;;;;;;19.85;11.82;;;;;;;;;;5034416;28;20055;-78
2023/03/12 08:02:03;;;;;;;20.95;13.00;;;;;;;;;;5052406;28;20041;-77
2023/03/12 08:04:29;;;;;;;15.60;12.50;;;;;;;;;;5034640;28;20053;-77
2023/03/12 08:06:56;;;;;;;20.95;12.50;;;;;;;;;;5034935;28;20394;-78
2023/03/12 08:09:22;;;;;;;17.88;12.80;;;;;;;;;;5034236;28;20056;-77
2023/03/12 08:11:48;;;;;;;18.95;13.10;;;;;;;;;;5052473;28;20051;-77
2023/03/12 08:14:17;;;;;;;22.23;14.13;;;;;;;;;;5051976;28;20051;-77
2023/03/12 08:16:43;;;;;;;18.45;13.00;;;;;;;;;;5052397;28;20448;-77
2023/03/12 08:19:09;;;;;;;20.23;14.98;;;;;;;;;;5034490;28;20084;-77
2023/03/12 08:21:35;;;;;;;19.95;14.52;;;;;;;;;;5051726;28;20049;-78
2023/03/12 08:24:01;;;;;;;21.42;14.52;;;;;;;;;;5032100;28;20055;-77
2023/03/12 08:26:27;;;;;;;18.73;14.75;;;;;;;;;;5051857;28;20041;-77
2023/03/12 08:28:53;;;;;;;18.40;14.35;;;;;;;;;;5034307;28;20390;-77
2023/03/12 08:31:19;;;;;;;18.40;14.70;;;;;;;;;;5050910;28;20037;-77
2023/03/12 08:33:45;;;;;;;19.35;15.18;;;;;;;;;;5031664;28;20048;-75
2023/03/12 08:36:11;;;;;;;24.80;13.85;;;;;;;;;;5053070;28;20171;-76
2023/03/12 08:38:37;;;;;;;19.50;14.55;;;;;;;;;;5037964;28;20087;-75
2023/03/12 08:41:04;;;;;;;21.80;13.00;;;;;;;;;;5056300;28;20083;-76
2023/03/12 08:43:30;;;;;;;18.98;12.65;;;;;;;;;;5055695;28;20454;-76
2023/03/12 08:46:00;;;;;;;19.90;14.70;;;;;;;;;;5036640;28;20053;-76
2023/03/12 08:48:28;;;;;;;23.30;14.88;;;;;;;;;;5054080;28;20040;-76
2023/03/12 08:50:58;;;;;;;15.98;12.50;;;;;;;;;;5038146;28;20053;-75
2023/03/12 08:53:24;;;;;;;21.65;14.20;;;;;;;;;;5055291;28;20397;-78
2023/03/12 08:55:53;;;;;;;19.10;12.85;;;;;;;;;;5056041;28;20045;-76
2023/03/12 08:58:20;;;;;;;20.33;13.85;;;;;;;;;;5055510;28;20076;-76
2023/03/12 09:00:46;;;;;;;20.45;12.20;;;;;;;;;;5055614;28;20041;-76
2023/03/12 09:03:13;;;;;;;15.98;11.60;;;;;;;;;;5037247;28;20056;-76
2023/03/12 09:05:40;;;;;;;17.38;11.75;;;;;;;;;;5054866;28;20465;-76
2023/03/12 09:08:06;;;;;;;18.60;11.77;;;;;;;;;;5054421;28;20443;-76
2023/03/12 09:10:32;;;;;;;18.15;12.05;;;;;;;;;;5055345;28;20099;-76
2023/03/12 09:12:58;;;;;;;18.23;11.98;;;;;;;;;;5037195;28;20053;-76
2023/03/12 09:15:24;;;;;;;17.02;11.82;;;;;;;;;;5055657;28;20549;-76
2023/03/12 09:17:52;;;;;;;17.70;12.80;;;;;;;;;;5054895;28;20072;-77
2023/03/12 09:20:19;;;;;;;16.60;12.25;;;;;;;;;;5037466;28;20120;-76
2023/03/12 09:22:45;;;;;;;15.85;11.73;;;;;;;;;;5054875;28;20061;-76
2023/03/12 09:25:11;;;;;;;18.58;12.85;;;;;;;;;;5037312;28;20045;-77
2023/03/12 09:27:38;;;;;;;16.05;12.77;;;;;;;;;;5054965;28;20045;-76
2023/03/12 09:30:05;;;;;;;16.67;12.70;;;;;;;;;;5055126;28;20037;-76
2023/03/12 09:32:31;;;;;;;22.25;13.93;;;;;;;;;;5054334;28;20163;-76
2023/03/12 09:34:58;;;;;;;16.75;13.02;;;;;;;;;;5054226;28;20114;-76
2023/03/12 09:37:24;;;;;;;18.48;13.60;;;;;;;;;;5040429;28;20627;-77
2023/03/12 09:39:50;;;;;;;18.17;13.55;;;;;;;;;;5054901;28;20099;-77
2023/03/12 09:42:22;;;;;;;18.45;13.20;;;;;;;;;;5036999;28;20100;-76
2023/03/12 09:44:49;;;;;;;16.10;13.38;;;;;;;;;;5054900;28;20132;-76
2023/03/12 09:47:33;;;;;;;17.05;13.20;;;;;;;;;;5053986;28;20093;-77
2023/03/12 09:50:02;;;;;;;18.77;13.93;;;;;;;;;;5054291;28;20041;-76
2023/03/12 09:52:31;;;;;;;20.58;13.57;;;;;;;;;;5054300;28;20095;-76
2023/03/12 09:55:13;;;;;;;18.25;14.88;;;;;;;;;;5054905;28;20049;-76
2023/03/12 09:57:40;;;;;;;17.95;15.18;;;;;;;;;;5036553;28;20087;-76
2023/03/12 10:00:26;;;;;;;16.77;14.80;;;;;;;;;;5054629;28;20048;-77
2023/03/12 10:02:52;;;;;;;;;;;;;;;;;;5054395;28;20123;-77
2023/03/12 10:05:23;;;;;;;20.35;15.63;;;;;;;;;;5054896;28;19923;-76
2023/03/12 10:07:57;;;;;;;25.58;16.95;;;;;;;;;;5053999;28;20045;-77
2023/03/12 10:10:23;;;;;;;19.92;15.93;;;;;;;;;;5054479;28;20041;-77
2023/03/12 10:13:02;;;;;;;20.17;16.42;;;;;;;;;;5035753;28;20107;-77
2023/03/12 10:15:31;;;;;;;20.77;15.73;;;;;;;;;;5054762;28;20040;-77
2023/03/12 10:18:00;;;;;;;20.05;16.60;;;;;;;;;;5036201;28;20049;-76
2023/03/12 10:20:46;;;;;;;18.42;15.45;;;;;;;;;;5054026;28;20063;-76
2023/03/12 10:23:16;;;;;;;20.42;16.30;;;;;;;;;;5052203;28;20401;-76
2023/03/12 10:25:42;;;;;;;18.73;15.30;;;;;;;;;;5035180;28;20045;-76
2023/03/12 10:28:19;;;;;;;18.75;16.58;;;;;;;;;;5035750;28;20049;-77
2023/03/12 10:30:49;;;;;;;17.25;15.38;;;;;;;;;;5053941;28;20434;-76
2023/03/12 10:33:17;;;;;;;23.55;16.77;;;;;;;;;;5053246;28;20110;-76
2023/03/12 10:35:43;;;;;;;18.33;16.35;;;;;;;;;;5054077;28;20446;-76
2023/03/12 10:38:12;;;;;;;18.65;15.55;;;;;;;;;;5053410;28;20060;-76
2023/03/12 10:40:40;;;;;;;20.40;15.90;;;;;;;;;;5035956;28;20041;-76
2023/03/12 10:43:06;;;;;;;20.70;17.67;;;;;;;;;;5033598;28;20547;-76
2023/03/12 10:45:50;;;;;;;21.20;16.67;;;;;;;;;;5033960;28;20041;-76
2023/03/12 10:48:25;;;;;;;19.50;16.17;;;;;;;;;;5035567;28;20079;-76
2023/03/12 10:51:04;;;;;;;19.67;16.45;;;;;;;;;;5035758;28;20052;-76
2023/03/12 10:53:31;;;;;;;20.25;17.15;;;;;;;;;;5035119;28;20091;-76
2023/03/12 10:56:14;;;;;;;25.42;18.50;;;;;;;;;;5053054;28;20080;-76
2023/03/12 10:58:39;;;;;;;19.50;17.13;;;;;;;;;;5050314;28;20757;-76
2023/03/12 11:01:10;;;;;;;24.95;19.13;;;;;;;;;;5053310;28;20124;-76
2023/03/12 11:03:37;;;;;;;22.15;18.60;;;;;;;;;;5035105;28;20045;-76
2023/03/12 11:06:06;;;;;;;21.50;19.08;;;;;;;;;;5053396;28;20489;-76
2023/03/12 11:08:34;;;;;;;22.58;17.90;;;;;;;;;;5052758;28;20092;-77
2023/03/12 11:11:00;;;;;;;19.63;17.13;;;;;;;;;;5053097;28;20049;-77
2023/03/12 11:13:28;;;;;;;22.48;18.70;;;;;;;;;;5050379;28;20037;-76
2023/03/12 11:15:55;;;;;;;22.20;18.08;;;;;;;;;;5035178;28;20555;-76
2023/03/12 11:18:21;;;;;;;20.88;17.85;;;;;;;;;;5052758;28;20498;-76
2023/03/12 11:20:52;;;;;;;23.30;19.10;;;;;;;;;;5053046;28;20041;-77
2023/03/12 11:23:24;;;;;;;22.45;18.25;;;;;;;;;;5052481;28;20095;-76
2023/03/12 11:25:51;;;;;;;25.50;18.58;;;;;;;;;;5052701;28;20044;-78
2023/03/12 11:28:20;;;;;;;23.40;19.00;;;;;;;;;;5034599;28;20045;-76
2023/03/12 11:30:47;;;;;;;23.30;18.40;;;;;;;;;;5053008;28;20099;-76
2023/03/12 11:33:13;;;;;;;22.70;19.05;;;;;;;;;;5052482;28;20045;-76
2023/03/12 11:35:39;;;;;;;24.67;19.15;;;;;;;;;;5052699;28;20083;-76
2023/03/12 11:38:15;;;;;;;25.73;18.88;;;;;;;;;;5052136;28;20052;-76
2023/03/12 11:40:41;;;;;;;25.33;19.05;;;;;;;;;;5018331;28;20060;-76
2023/03/12 11:43:26;;;;;;;23.40;19.08;;;;;;;;;;5052332;28;20430;-76
2023/03/12 11:45:51;;;;;;;26.17;20.15;;;;;;;;;;5052730;28;20095;-76
2023/03/12 11:48:24;;;;;;;25.02;19.02;;;;;;;;;;5052253;28;20041;-76
2023/03/12 11:50:50;;;;;;;27.35;20.73;;;;;;;;;;5052229;28;20409;-76
2023/03/12 11:53:31;;;;;;;29.15;20.00;;;;;;;;;;5033546;28;20055;-77
2023/03/12 11:56:00;;;;;;;25.23;19.55;;;;;;;;;;5053650;28;20045;-76
2023/03/12 11:58:26;;;;;;;26.42;20.17;;;;;;;;;;5045457;28;20044;-76
2023/03/12 12:00:55;;;;;;;27.67;20.02;;;;;;;;;;5052531;28;20438;-76
2023/03/12 12:03:30;;;;;;;27.55;19.65;;;;;;;;;;5051558;28;20033;-76
2023/03/12 12:05:59;;;;;;;26.77;19.77;;;;;;;;;;5023791;28;20049;-76
2023/03/12 12:08:35;;;;;;;23.98;18.60;;;;;;;;;;5060755;28;20085;-76
2023/03/12 12:11:01;;;;;;;25.58;19.70;;;;;;;;;;5067363;28;20048;-77
2023/03/12 12:13:45;;;;;;;27.33;20.85;;;;;;;;;;5066944;28;20099;-76
2023/03/12 12:16:38;;;;;;;27.88;19.70;;;;;;;;;;5067593;28;20053;-77
2023/03/12 12:19:28;;;;;;;30.10;20.40;;;;;;;;;;5068031;28;20097;-77
2023/03/12 12:21:57;;;;;;;26.00;19.83;;;;;;;;;;5072078;28;20048;-77
2023/03/12 12:24:35;;;;;;;28.52;20.55;;;;;;;;;;5066898;28;20052;-74
2023/03/12 12:27:20;;;;;;;28.23;20.27;;;;;;;;;;5048988;28;20045;-74
2023/03/12 12:30:05;;;;;;;28.23;20.25;;;;;;;;;;5064388;28;20051;-73
2023/03/12 12:32:31;;;;;;;31.77;21.65;;;;;;;;;;5068728;28;20434;-74
2023/03/12 12:35:13;;;;;;;25.88;19.50;;;;;;;;;;5068804;28;20045;-73
2023/03/12 12:37:53;;;;;;;30.25;19.67;;;;;;;;;;5059164;28;20144;-74
2023/03/12 12:40:24;;;;;;;32.17;21.17;;;;;;;;;;5052468;28;20037;-74
2023/03/12 12:43:14;;;;;;;30.80;21.17;;;;;;;;;;5054636;28;20055;-74
2023/03/12 12:45:41;;;;;;;32.13;20.55;;;;;;;;;;5049310;28;20048;-74
2023/03/12 12:48:20;;;;;;;33.20;21.13;;;;;;;;;;5049211;28;20053;-74
2023/03/12 12:50:47;;;;;;;34.88;20.15;;;;;;;;;;5014557;28;20041;-74
2023/03/12 12:53:13;;;;;;;30.60;19.15;;;;;;;;;;5035346;28;20474;-74
2023/03/12 12:55:49;;;;;;;34.17;19.08;;;;;;;;;;5043463;28;20045;-73
2023/03/12 12:58:15;;;;;;;;;;;;;;;;;;5065486;28;20049;-74
2023/03/12 13:01:10;;;;;;;32.97;18.88;;;;;;;;;;5068703;28;19994;-73
2023/03/12 13:03:37;;;;;;;38.35;19.98;;;;;;;;;;5050865;28;20074;-73
2023/03/12 13:06:04;;;;;;;36.55;18.98;;;;;;;;;;5046858;28;20052;-73
2023/03/12 13:08:39;;;;;;;35.60;18.55;;;;;;;;;;5050021;28;20055;-73
2023/03/12 13:11:22;;;;;;;32.17;17.13;;;;;;;;;;5030774;28;20100;-74
2023/03/12 13:14:08;;;;;;;31.33;17.50;;;;;;;;;;5047879;28;20343;-74
2023/03/12 13:16:44;;;;;;;32.17;18.45;;;;;;;;;;5029678;28;20037;-74
2023/03/12 13:19:13;;;;;;;30.70;17.83;;;;;;;;;;5048735;28;20339;-74
2023/03/12 13:21:39;;;;;;;35.15;18.15;;;;;;;;;;5062912;28;20053;-75
2023/03/12 13:24:19;;;;;;;37.97;18.20;;;;;;;;;;5071086;28;20060;-75
2023/03/12 13:26:50;;;;;;;37.95;18.10;;;;;;;;;;5063123;28;20095;-75
2023/03/12 13:29:19;;;;;;;31.27;17.77;;;;;;;;;;5051410;28;20441;-73
2023/03/12 13:31:46;;;;;;;52.30;17.58;;;;;;;;;;5033921;28;20068;-76
2023/03/12 13:34:18;;;;;;;42.95;18.08;;;;;;;;;;5051727;28;20049;-74
2023/03/12 13:36:45;;;;;;;40.13;16.35;;;;;;;;;;5049306;28;20405;-74
2023/03/12 13:39:14;;;;;;;41.17;16.17;;;;;;;;;;5033609;28;20067;-74
2023/03/12 13:41:54;;;;;;;30.02;15.70;;;;;;;;;;5034787;28;20608;-74
2023/03/12 13:44:24;;;;;;;37.55;15.55;;;;;;;;;;5058227;28;20178;-74
2023/03/12 13:47:05;;;;;;;36.55;14.18;;;;;;;;;;5033708;28;20095;-74
2023/03/12 13:49:43;;;;;;;34.08;13.65;;;;;;;;;;5017980;28;20049;-74
2023/03/12 13:52:23;;;;;;;38.80;13.35;;;;;;;;;;5051591;28;20532;-75
2023/03/12 13:55:00;;;;;;;38.70;13.32;;;;;;;;;;5033565;28;20084;-75
2023/03/12 13:57:31;;;;;;;35.72;12.07;;;;;;;;;;5051175;28;20132;-75
2023/03/12 13:59:59;;;;;;;38.28;11.23;;;;;;;;;;5050675;28;20045;-75
2023/03/12 14:02:29;;;;;;;31.58;10.38;;;;;;;;;;5051399;28;20041;-75
2023/03/12 14:05:01;;;;;;;32.30;9.40;;;;;;;;;;5055281;28;20119;-74
2023/03/12 14:07:27;;;;;;;29.85;9.02;;;;;;;;;;5070392;28;20412;-74
2023/03/12 14:10:12;;;;;;;33.45;9.18;;;;;;;;;;5052790;28;20060;-74
2023/03/12 14:12:57;;;;;;;36.72;9.38;;;;;;;;;;5036635;28;20138;-74
2023/03/12 14:15:35;;;;;;;37.40;8.63;;;;;;;;;;5071014;28;20044;-74
2023/03/12 14:18:04;;;;;;;34.42;10.30;;;;;;;;;;5052498;28;20066;-74
2023/03/12 14:20:30;;;;;;;35.10;8.73;;;;;;;;;;5070901;28;20049;-74
2023/03/12 14:23:03;;;;;;;35.13;8.20;;;;;;;;;;5070589;28;20041;-74
2023/03/12 14:25:38;;;;;;;29.98;7.95;;;;;;;;;;5070836;28;20052;-74
2023/03/12 14:28:10;;;;;;;29.95;8.13;;;;;;;;;;5052157;28;20110;-74
2023/03/12 14:30:40;;;;;;;33.90;8.93;;;;;;;;;;5070678;28;20053;-74
2023/03/12 14:33:07;;;;;;;36.42;7.65;;;;;;;;;;5052052;28;20059;-74
2023/03/12 14:35:36;;;;;;;41.75;8.40;;;;;;;;;;5070997;28;20037;-74
2023/03/12 14:38:02;;;;;;;34.13;7.60;;;;;;;;;;5052332;28;20306;-74
2023/03/12 14:40:28;;;;;;;25.83;6.35;;;;;;;;;;5070699;28;20417;-74